sensor_id;sensor_type;location;lat;lon;timestamp;P1;durP1;ratioP1;P2;durP2;ratioP2
42066;SDS011;27734;47.028;28.820;2023-07-29T00:00:12;14.13;;;6.00;;
42066;SDS011;27734;47.028;28.820;2023-07-29T00:03:03;17.53;;;6.20;;
42066;SDS011;27734;47.028;28.820;2023-07-29T00:05:34;14.63;;;6.07;;
42066;SDS011;27734;47.028;28.820;2023-07-29T00:08:06;13.17;;;5.93;;
42066;SDS011;27734;47.028;28.820;2023-07-29T00:10:37;14.07;;;5.90;;
42066;SDS011;27734;47.028;28.820;2023-07-29T00:13:09;13.83;;;6.20;;
42066;SDS011;27734;47.028;28.820;2023-07-29T00:15:40;15.40;;;6.20;;
42066;SDS011;27734;47.028;28.820;2023-07-29T00:18:12;14.47;;;6.20;;
42066;SDS011;27734;47.028;28.820;2023-07-29T00:20:44;13.97;;;6.03;;
42066;SDS011;27734;47.028;28.820;2023-07-29T00:23:16;14.47;;;5.90;;
42066;SDS011;27734;47.028;28.820;2023-07-29T00:25:48;15.10;;;6.23;;
42066;SDS011;27734;47.028;28.820;2023-07-29T00:28:19;15.70;;;6.73;;
42066;SDS011;27734;47.028;28.820;2023-07-29T00:30:50;15.60;;;6.73;;
42066;SDS011;27734;47.028;28.820;2023-07-29T00:33:22;15.87;;;6.60;;
42066;SDS011;27734;47.028;28.820;2023-07-29T00:35:55;13.68;;;6.28;;
42066;SDS011;27734;47.028;28.820;2023-07-29T00:38:30;14.40;;;6.50;;
42066;SDS011;27734;47.028;28.820;2023-07-29T00:41:01;16.60;;;7.00;;
42066;SDS011;27734;47.028;28.820;2023-07-29T00:43:33;16.27;;;7.00;;
42066;SDS011;27734;47.028;28.820;2023-07-29T00:46:04;16.10;;;6.33;;
42066;SDS011;27734;47.028;28.820;2023-07-29T00:48:38;14.70;;;6.30;;
42066;SDS011;27734;47.028;28.820;2023-07-29T00:51:09;18.00;;;6.90;;
42066;SDS011;27734;47.028;28.820;2023-07-29T00:53:40;12.87;;;6.17;;
42066;SDS011;27734;47.028;28.820;2023-07-29T00:56:12;18.73;;;7.37;;
42066;SDS011;27734;47.028;28.820;2023-07-29T00:58:45;17.30;;;7.25;;
42066;SDS011;27734;47.028;28.820;2023-07-29T01:01:17;18.23;;;6.83;;
42066;SDS011;27734;47.028;28.820;2023-07-29T01:03:48;14.20;;;6.40;;
42066;SDS011;27734;47.028;28.820;2023-07-29T01:06:21;15.33;;;6.03;;
42066;SDS011;27734;47.028;28.820;2023-07-29T01:09:01;14.80;;;6.23;;
42066;SDS011;27734;47.028;28.820;2023-07-29T01:11:38;14.13;;;6.43;;
42066;SDS011;27734;47.028;28.820;2023-07-29T01:14:20;14.67;;;6.50;;
42066;SDS011;27734;47.028;28.820;2023-07-29T01:16:58;16.87;;;7.27;;
42066;SDS011;27734;47.028;28.820;2023-07-29T01:19:39;17.57;;;6.73;;
42066;SDS011;27734;47.028;28.820;2023-07-29T01:22:23;18.47;;;6.83;;
42066;SDS011;27734;47.028;28.820;2023-07-29T01:24:55;13.33;;;6.30;;
42066;SDS011;27734;47.028;28.820;2023-07-29T01:27:27;17.00;;;6.83;;
42066;SDS011;27734;47.028;28.820;2023-07-29T01:29:58;14.73;;;6.80;;
42066;SDS011;27734;47.028;28.820;2023-07-29T01:32:32;14.03;;;6.30;;
42066;SDS011;27734;47.028;28.820;2023-07-29T01:35:12;19.97;;;6.27;;
42066;SDS011;27734;47.028;28.820;2023-07-29T01:37:49;14.73;;;6.20;;
42066;SDS011;27734;47.028;28.820;2023-07-29T01:40:24;15.90;;;6.70;;
42066;SDS011;27734;47.028;28.820;2023-07-29T01:42:58;14.23;;;6.50;;
42066;SDS011;27734;47.028;28.820;2023-07-29T01:45:30;14.77;;;6.10;;
42066;SDS011;27734;47.028;28.820;2023-07-29T01:48:06;13.37;;;5.80;;
42066;SDS011;27734;47.028;28.820;2023-07-29T01:50:37;14.37;;;6.17;;
42066;SDS011;27734;47.028;28.820;2023-07-29T01:53:11;14.47;;;5.97;;
42066;SDS011;27734;47.028;28.820;2023-07-29T01:55:43;15.53;;;6.50;;
42066;SDS011;27734;47.028;28.820;2023-07-29T01:58:15;16.17;;;6.97;;
42066;SDS011;27734;47.028;28.820;2023-07-29T02:00:48;22.33;;;7.17;;
42066;SDS011;27734;47.028;28.820;2023-07-29T02:03:20;18.07;;;7.20;;
42066;SDS011;27734;47.028;28.820;2023-07-29T02:05:51;21.13;;;7.50;;
42066;SDS011;27734;47.028;28.820;2023-07-29T02:08:22;18.77;;;7.67;;
42066;SDS011;27734;47.028;28.820;2023-07-29T02:10:53;19.17;;;8.93;;
42066;SDS011;27734;47.028;28.820;2023-07-29T02:13:25;19.37;;;9.47;;
42066;SDS011;27734;47.028;28.820;2023-07-29T02:15:56;20.27;;;9.17;;
42066;SDS011;27734;47.028;28.820;2023-07-29T02:18:27;17.47;;;8.03;;
42066;SDS011;27734;47.028;28.820;2023-07-29T02:20:59;18.60;;;8.73;;
42066;SDS011;27734;47.028;28.820;2023-07-29T02:23:31;16.73;;;7.80;;
42066;SDS011;27734;47.028;28.820;2023-07-29T02:26:02;23.73;;;7.80;;
42066;SDS011;27734;47.028;28.820;2023-07-29T02:28:34;18.07;;;7.30;;
42066;SDS011;27734;47.028;28.820;2023-07-29T02:31:13;18.63;;;7.37;;
42066;SDS011;27734;47.028;28.820;2023-07-29T02:33:46;16.50;;;7.67;;
42066;SDS011;27734;47.028;28.820;2023-07-29T02:36:18;17.40;;;7.43;;
42066;SDS011;27734;47.028;28.820;2023-07-29T02:38:50;13.77;;;7.13;;
42066;SDS011;27734;47.028;28.820;2023-07-29T02:41:21;19.10;;;7.87;;
42066;SDS011;27734;47.028;28.820;2023-07-29T02:43:52;18.23;;;8.07;;
42066;SDS011;27734;47.028;28.820;2023-07-29T02:46:24;17.77;;;8.17;;
42066;SDS011;27734;47.028;28.820;2023-07-29T02:48:55;21.27;;;9.00;;
42066;SDS011;27734;47.028;28.820;2023-07-29T02:51:27;20.67;;;9.40;;
42066;SDS011;27734;47.028;28.820;2023-07-29T02:53:58;23.37;;;10.47;;
42066;SDS011;27734;47.028;28.820;2023-07-29T02:56:30;25.30;;;10.93;;
42066;SDS011;27734;47.028;28.820;2023-07-29T02:59:01;25.27;;;10.70;;
42066;SDS011;27734;47.028;28.820;2023-07-29T03:01:33;22.37;;;9.53;;
42066;SDS011;27734;47.028;28.820;2023-07-29T03:04:04;22.53;;;10.20;;
42066;SDS011;27734;47.028;28.820;2023-07-29T03:06:36;20.83;;;9.83;;
42066;SDS011;27734;47.028;28.820;2023-07-29T03:09:08;25.50;;;10.03;;
42066;SDS011;27734;47.028;28.820;2023-07-29T03:11:39;25.50;;;11.27;;
42066;SDS011;27734;47.028;28.820;2023-07-29T03:14:10;25.17;;;11.03;;
42066;SDS011;27734;47.028;28.820;2023-07-29T03:16:41;22.33;;;10.33;;
42066;SDS011;27734;47.028;28.820;2023-07-29T03:19:13;22.70;;;10.33;;
42066;SDS011;27734;47.028;28.820;2023-07-29T03:21:45;22.33;;;9.67;;
42066;SDS011;27734;47.028;28.820;2023-07-29T03:24:16;17.03;;;8.27;;
42066;SDS011;27734;47.028;28.820;2023-07-29T03:26:47;17.53;;;8.23;;
42066;SDS011;27734;47.028;28.820;2023-07-29T03:29:18;18.37;;;8.20;;
42066;SDS011;27734;47.028;28.820;2023-07-29T03:31:50;20.03;;;8.23;;
42066;SDS011;27734;47.028;28.820;2023-07-29T03:34:21;20.97;;;8.00;;
42066;SDS011;27734;47.028;28.820;2023-07-29T03:36:52;20.37;;;8.60;;
42066;SDS011;27734;47.028;28.820;2023-07-29T03:39:24;17.03;;;8.20;;
42066;SDS011;27734;47.028;28.820;2023-07-29T03:41:55;22.07;;;8.73;;
42066;SDS011;27734;47.028;28.820;2023-07-29T03:44:26;19.03;;;8.27;;
42066;SDS011;27734;47.028;28.820;2023-07-29T03:46:59;21.83;;;9.17;;
42066;SDS011;27734;47.028;28.820;2023-07-29T03:49:30;19.03;;;7.20;;
42066;SDS011;27734;47.028;28.820;2023-07-29T03:52:02;14.80;;;7.03;;
42066;SDS011;27734;47.028;28.820;2023-07-29T03:54:35;17.13;;;7.20;;
42066;SDS011;27734;47.028;28.820;2023-07-29T03:57:06;18.30;;;7.20;;
42066;SDS011;27734;47.028;28.820;2023-07-29T03:59:38;18.17;;;7.27;;
42066;SDS011;27734;47.028;28.820;2023-07-29T04:02:12;19.70;;;7.85;;
42066;SDS011;27734;47.028;28.820;2023-07-29T04:04:45;18.83;;;7.37;;
42066;SDS011;27734;47.028;28.820;2023-07-29T04:07:16;19.90;;;7.33;;
42066;SDS011;27734;47.028;28.820;2023-07-29T04:09:48;17.50;;;6.80;;
42066;SDS011;27734;47.028;28.820;2023-07-29T04:12:19;17.33;;;7.47;;
42066;SDS011;27734;47.028;28.820;2023-07-29T04:14:50;19.33;;;7.27;;
42066;SDS011;27734;47.028;28.820;2023-07-29T04:17:22;15.93;;;6.77;;
42066;SDS011;27734;47.028;28.820;2023-07-29T04:19:53;16.57;;;7.07;;
42066;SDS011;27734;47.028;28.820;2023-07-29T04:22:27;14.83;;;6.40;;
42066;SDS011;27734;47.028;28.820;2023-07-29T04:24:58;14.87;;;6.20;;
42066;SDS011;27734;47.028;28.820;2023-07-29T04:27:30;15.30;;;6.10;;
42066;SDS011;27734;47.028;28.820;2023-07-29T04:30:01;15.40;;;5.87;;
42066;SDS011;27734;47.028;28.820;2023-07-29T04:32:33;13.20;;;6.03;;
42066;SDS011;27734;47.028;28.820;2023-07-29T04:35:09;13.23;;;5.73;;
42066;SDS011;27734;47.028;28.820;2023-07-29T04:37:40;13.17;;;5.80;;
42066;SDS011;27734;47.028;28.820;2023-07-29T04:40:12;12.27;;;5.43;;
42066;SDS011;27734;47.028;28.820;2023-07-29T04:42:44;14.17;;;5.77;;
42066;SDS011;27734;47.028;28.820;2023-07-29T04:45:15;13.60;;;5.63;;
42066;SDS011;27734;47.028;28.820;2023-07-29T04:47:46;9.25;;;5.00;;
42066;SDS011;27734;47.028;28.820;2023-07-29T04:50:18;8.80;;;4.40;;
42066;SDS011;27734;47.028;28.820;2023-07-29T04:52:49;9.67;;;4.80;;
42066;SDS011;27734;47.028;28.820;2023-07-29T04:55:21;9.53;;;4.90;;
42066;SDS011;27734;47.028;28.820;2023-07-29T04:57:52;10.83;;;4.60;;
42066;SDS011;27734;47.028;28.820;2023-07-29T05:00:23;8.37;;;4.50;;
42066;SDS011;27734;47.028;28.820;2023-07-29T05:02:55;8.60;;;4.30;;
42066;SDS011;27734;47.028;28.820;2023-07-29T05:05:27;9.20;;;4.83;;
42066;SDS011;27734;47.028;28.820;2023-07-29T05:08:01;7.57;;;4.13;;
42066;SDS011;27734;47.028;28.820;2023-07-29T05:10:32;12.97;;;4.90;;
42066;SDS011;27734;47.028;28.820;2023-07-29T05:13:04;8.43;;;4.00;;
42066;SDS011;27734;47.028;28.820;2023-07-29T05:15:36;9.10;;;4.20;;
42066;SDS011;27734;47.028;28.820;2023-07-29T05:18:07;9.13;;;4.30;;
42066;SDS011;27734;47.028;28.820;2023-07-29T05:20:38;10.10;;;4.10;;
42066;SDS011;27734;47.028;28.820;2023-07-29T05:23:10;9.23;;;4.07;;
42066;SDS011;27734;47.028;28.820;2023-07-29T05:25:41;7.73;;;3.97;;
42066;SDS011;27734;47.028;28.820;2023-07-29T05:28:13;8.20;;;4.07;;
42066;SDS011;27734;47.028;28.820;2023-07-29T05:30:44;11.10;;;4.07;;
42066;SDS011;27734;47.028;28.820;2023-07-29T05:33:16;13.13;;;4.30;;
42066;SDS011;27734;47.028;28.820;2023-07-29T05:35:47;9.73;;;4.07;;
42066;SDS011;27734;47.028;28.820;2023-07-29T05:38:18;10.47;;;4.10;;
42066;SDS011;27734;47.028;28.820;2023-07-29T05:40:50;10.27;;;4.23;;
42066;SDS011;27734;47.028;28.820;2023-07-29T05:43:21;10.60;;;4.33;;
42066;SDS011;27734;47.028;28.820;2023-07-29T05:45:53;6.70;;;3.67;;
42066;SDS011;27734;47.028;28.820;2023-07-29T05:48:25;9.00;;;4.43;;
42066;SDS011;27734;47.028;28.820;2023-07-29T05:50:56;9.27;;;3.90;;
42066;SDS011;27734;47.028;28.820;2023-07-29T05:53:28;7.10;;;3.77;;
42066;SDS011;27734;47.028;28.820;2023-07-29T05:55:59;7.13;;;3.80;;
42066;SDS011;27734;47.028;28.820;2023-07-29T05:58:30;7.03;;;3.73;;
42066;SDS011;27734;47.028;28.820;2023-07-29T06:01:02;9.40;;;4.03;;
42066;SDS011;27734;47.028;28.820;2023-07-29T06:03:33;8.90;;;3.83;;
42066;SDS011;27734;47.028;28.820;2023-07-29T06:06:04;9.47;;;3.93;;
42066;SDS011;27734;47.028;28.820;2023-07-29T06:08:35;7.53;;;3.47;;
42066;SDS011;27734;47.028;28.820;2023-07-29T06:11:07;6.90;;;3.70;;
42066;SDS011;27734;47.028;28.820;2023-07-29T06:13:38;11.27;;;3.67;;
42066;SDS011;27734;47.028;28.820;2023-07-29T06:16:09;8.27;;;3.77;;
42066;SDS011;27734;47.028;28.820;2023-07-29T06:18:41;12.90;;;3.90;;
42066;SDS011;27734;47.028;28.820;2023-07-29T06:21:13;7.83;;;3.60;;
42066;SDS011;27734;47.028;28.820;2023-07-29T06:23:45;7.30;;;3.47;;
42066;SDS011;27734;47.028;28.820;2023-07-29T06:26:16;10.27;;;3.60;;
42066;SDS011;27734;47.028;28.820;2023-07-29T06:28:48;6.63;;;3.40;;
42066;SDS011;27734;47.028;28.820;2023-07-29T06:31:19;9.97;;;3.53;;
42066;SDS011;27734;47.028;28.820;2023-07-29T06:33:50;9.50;;;3.60;;
42066;SDS011;27734;47.028;28.820;2023-07-29T06:36:22;7.73;;;3.73;;
42066;SDS011;27734;47.028;28.820;2023-07-29T06:38:54;8.90;;;3.53;;
42066;SDS011;27734;47.028;28.820;2023-07-29T06:41:25;7.40;;;3.60;;
42066;SDS011;27734;47.028;28.820;2023-07-29T06:43:56;5.80;;;3.60;;
42066;SDS011;27734;47.028;28.820;2023-07-29T06:46:27;6.53;;;3.70;;
42066;SDS011;27734;47.028;28.820;2023-07-29T06:48:59;10.63;;;3.80;;
42066;SDS011;27734;47.028;28.820;2023-07-29T06:51:30;6.10;;;3.30;;
42066;SDS011;27734;47.028;28.820;2023-07-29T06:54:03;6.85;;;3.40;;
42066;SDS011;27734;47.028;28.820;2023-07-29T06:56:37;4.77;;;3.17;;
42066;SDS011;27734;47.028;28.820;2023-07-29T06:59:08;8.83;;;3.37;;
42066;SDS011;27734;47.028;28.820;2023-07-29T07:01:40;7.63;;;3.47;;
42066;SDS011;27734;47.028;28.820;2023-07-29T07:04:11;7.80;;;3.20;;
42066;SDS011;27734;47.028;28.820;2023-07-29T07:06:42;6.80;;;3.07;;
42066;SDS011;27734;47.028;28.820;2023-07-29T07:09:13;5.13;;;3.10;;
42066;SDS011;27734;47.028;28.820;2023-07-29T07:11:45;5.87;;;3.17;;
42066;SDS011;27734;47.028;28.820;2023-07-29T07:14:16;5.93;;;3.17;;
42066;SDS011;27734;47.028;28.820;2023-07-29T07:16:47;6.17;;;3.07;;
42066;SDS011;27734;47.028;28.820;2023-07-29T07:19:19;5.37;;;3.00;;
42066;SDS011;27734;47.028;28.820;2023-07-29T07:21:50;5.27;;;2.97;;
42066;SDS011;27734;47.028;28.820;2023-07-29T07:24:21;6.63;;;3.37;;
42066;SDS011;27734;47.028;28.820;2023-07-29T07:26:52;5.17;;;3.10;;
42066;SDS011;27734;47.028;28.820;2023-07-29T07:29:24;6.53;;;3.27;;
42066;SDS011;27734;47.028;28.820;2023-07-29T07:31:55;6.23;;;3.40;;
42066;SDS011;27734;47.028;28.820;2023-07-29T07:34:28;7.13;;;3.37;;
42066;SDS011;27734;47.028;28.820;2023-07-29T07:36:59;5.67;;;3.30;;
42066;SDS011;27734;47.028;28.820;2023-07-29T07:39:32;5.47;;;3.67;;
42066;SDS011;27734;47.028;28.820;2023-07-29T07:42:04;8.60;;;3.30;;
42066;SDS011;27734;47.028;28.820;2023-07-29T07:44:35;6.40;;;3.20;;
42066;SDS011;27734;47.028;28.820;2023-07-29T07:47:07;6.57;;;3.43;;
42066;SDS011;27734;47.028;28.820;2023-07-29T07:49:38;6.57;;;3.20;;
42066;SDS011;27734;47.028;28.820;2023-07-29T07:52:09;7.50;;;3.30;;
42066;SDS011;27734;47.028;28.820;2023-07-29T07:54:40;5.57;;;3.27;;
42066;SDS011;27734;47.028;28.820;2023-07-29T07:57:14;6.80;;;3.30;;
42066;SDS011;27734;47.028;28.820;2023-07-29T07:59:46;4.50;;;3.13;;
42066;SDS011;27734;47.028;28.820;2023-07-29T08:02:17;4.73;;;2.93;;
42066;SDS011;27734;47.028;28.820;2023-07-29T08:04:48;4.53;;;3.20;;
42066;SDS011;27734;47.028;28.820;2023-07-29T08:07:20;6.83;;;3.40;;
42066;SDS011;27734;47.028;28.820;2023-07-29T08:09:51;5.00;;;3.00;;
42066;SDS011;27734;47.028;28.820;2023-07-29T08:12:25;5.37;;;3.03;;
42066;SDS011;27734;47.028;28.820;2023-07-29T08:14:57;5.23;;;3.13;;
42066;SDS011;27734;47.028;28.820;2023-07-29T08:17:32;7.07;;;3.37;;
42066;SDS011;27734;47.028;28.820;2023-07-29T08:20:08;5.30;;;2.97;;
42066;SDS011;27734;47.028;28.820;2023-07-29T08:22:44;5.17;;;2.60;;
42066;SDS011;27734;47.028;28.820;2023-07-29T08:25:15;6.60;;;3.00;;
42066;SDS011;27734;47.028;28.820;2023-07-29T08:27:47;8.13;;;3.10;;
42066;SDS011;27734;47.028;28.820;2023-07-29T08:30:18;6.03;;;3.13;;
42066;SDS011;27734;47.028;28.820;2023-07-29T08:32:49;4.20;;;2.70;;
42066;SDS011;27734;47.028;28.820;2023-07-29T08:35:21;4.93;;;3.30;;
42066;SDS011;27734;47.028;28.820;2023-07-29T08:37:56;11.00;;;3.30;;
42066;SDS011;27734;47.028;28.820;2023-07-29T08:40:27;5.13;;;3.00;;
42066;SDS011;27734;47.028;28.820;2023-07-29T08:43:01;4.43;;;2.80;;
42066;SDS011;27734;47.028;28.820;2023-07-29T08:45:35;4.53;;;2.90;;
42066;SDS011;27734;47.028;28.820;2023-07-29T08:48:08;6.00;;;3.12;;
42066;SDS011;27734;47.028;28.820;2023-07-29T08:50:41;4.80;;;3.17;;
42066;SDS011;27734;47.028;28.820;2023-07-29T08:53:16;4.70;;;2.93;;
42066;SDS011;27734;47.028;28.820;2023-07-29T08:55:49;6.17;;;3.30;;
42066;SDS011;27734;47.028;28.820;2023-07-29T08:58:21;5.03;;;3.10;;
42066;SDS011;27734;47.028;28.820;2023-07-29T09:00:53;4.27;;;3.10;;
42066;SDS011;27734;47.028;28.820;2023-07-29T09:03:26;3.97;;;3.03;;
42066;SDS011;27734;47.028;28.820;2023-07-29T09:05:58;5.65;;;3.08;;
42066;SDS011;27734;47.028;28.820;2023-07-29T09:08:33;7.43;;;3.20;;
42066;SDS011;27734;47.028;28.820;2023-07-29T09:11:07;4.73;;;3.07;;
42066;SDS011;27734;47.028;28.820;2023-07-29T09:13:39;4.07;;;3.10;;
42066;SDS011;27734;47.028;28.820;2023-07-29T09:16:13;4.03;;;2.90;;
42066;SDS011;27734;47.028;28.820;2023-07-29T09:18:45;2.87;;;2.57;;
42066;SDS011;27734;47.028;28.820;2023-07-29T09:21:20;4.43;;;3.20;;
42066;SDS011;27734;47.028;28.820;2023-07-29T09:23:55;3.90;;;3.03;;
42066;SDS011;27734;47.028;28.820;2023-07-29T09:26:26;4.13;;;2.63;;
42066;SDS011;27734;47.028;28.820;2023-07-29T09:28:59;4.42;;;2.90;;
42066;SDS011;27734;47.028;28.820;2023-07-29T09:31:30;2.93;;;2.50;;
42066;SDS011;27734;47.028;28.820;2023-07-29T09:34:03;4.35;;;2.72;;
42066;SDS011;27734;47.028;28.820;2023-07-29T09:36:35;4.93;;;2.90;;
42066;SDS011;27734;47.028;28.820;2023-07-29T09:39:10;3.30;;;2.93;;
42066;SDS011;27734;47.028;28.820;2023-07-29T09:41:45;8.07;;;3.13;;
42066;SDS011;27734;47.028;28.820;2023-07-29T09:44:18;5.10;;;2.93;;
42066;SDS011;27734;47.028;28.820;2023-07-29T09:46:49;3.83;;;2.87;;
42066;SDS011;27734;47.028;28.820;2023-07-29T09:49:21;4.40;;;2.97;;
42066;SDS011;27734;47.028;28.820;2023-07-29T09:51:54;3.42;;;2.80;;
42066;SDS011;27734;47.028;28.820;2023-07-29T09:54:27;5.60;;;2.70;;
42066;SDS011;27734;47.028;28.820;2023-07-29T09:56:59;4.07;;;2.80;;
42066;SDS011;27734;47.028;28.820;2023-07-29T09:59:32;4.17;;;2.90;;
42066;SDS011;27734;47.028;28.820;2023-07-29T10:02:05;5.83;;;3.07;;
42066;SDS011;27734;47.028;28.820;2023-07-29T10:04:42;4.93;;;2.93;;
42066;SDS011;27734;47.028;28.820;2023-07-29T10:07:15;3.98;;;2.80;;
42066;SDS011;27734;47.028;28.820;2023-07-29T10:09:47;7.43;;;3.17;;
42066;SDS011;27734;47.028;28.820;2023-07-29T10:12:21;6.17;;;2.60;;
42066;SDS011;27734;47.028;28.820;2023-07-29T10:14:54;3.58;;;2.62;;
42066;SDS011;27734;47.028;28.820;2023-07-29T10:17:28;5.00;;;3.10;;
42066;SDS011;27734;47.028;28.820;2023-07-29T10:20:03;3.93;;;2.97;;
42066;SDS011;27734;47.028;28.820;2023-07-29T10:22:37;3.67;;;2.50;;
42066;SDS011;27734;47.028;28.820;2023-07-29T10:25:10;2.72;;;2.45;;
42066;SDS011;27734;47.028;28.820;2023-07-29T10:27:46;3.90;;;2.70;;
42066;SDS011;27734;47.028;28.820;2023-07-29T10:30:21;2.77;;;2.50;;
42066;SDS011;27734;47.028;28.820;2023-07-29T10:32:53;3.30;;;2.73;;
42066;SDS011;27734;47.028;28.820;2023-07-29T10:35:27;3.30;;;2.70;;
42066;SDS011;27734;47.028;28.820;2023-07-29T10:37:58;3.50;;;2.60;;
42066;SDS011;27734;47.028;28.820;2023-07-29T10:40:44;3.40;;;2.50;;
42066;SDS011;27734;47.028;28.820;2023-07-29T10:43:23;3.50;;;2.70;;
42066;SDS011;27734;47.028;28.820;2023-07-29T10:45:59;3.23;;;2.70;;
42066;SDS011;27734;47.028;28.820;2023-07-29T10:48:56;4.87;;;2.73;;
42066;SDS011;27734;47.028;28.820;2023-07-29T10:51:28;3.50;;;2.60;;
42066;SDS011;27734;47.028;28.820;2023-07-29T10:56:32;4.03;;;2.60;;
42066;SDS011;27734;47.028;28.820;2023-07-29T11:02:11;3.17;;;2.63;;
42066;SDS011;27734;47.028;28.820;2023-07-29T11:04:49;6.73;;;2.63;;
42066;SDS011;27734;47.028;28.820;2023-07-29T11:07:24;4.33;;;2.60;;
42066;SDS011;27734;47.028;28.820;2023-07-29T11:09:57;4.03;;;2.50;;
42066;SDS011;27734;47.028;28.820;2023-07-29T11:12:37;4.63;;;2.37;;
42066;SDS011;27734;47.028;28.820;2023-07-29T11:15:18;5.03;;;2.80;;
42066;SDS011;27734;47.028;28.820;2023-07-29T11:17:51;4.07;;;2.90;;
42066;SDS011;27734;47.028;28.820;2023-07-29T11:22:54;4.60;;;2.77;;
42066;SDS011;27734;47.028;28.820;2023-07-29T11:25:28;3.83;;;2.97;;
42066;SDS011;27734;47.028;28.820;2023-07-29T11:28:01;5.30;;;2.63;;
42066;SDS011;27734;47.028;28.820;2023-07-29T11:30:33;5.50;;;2.60;;
42066;SDS011;27734;47.028;28.820;2023-07-29T11:33:08;4.30;;;2.60;;
42066;SDS011;27734;47.028;28.820;2023-07-29T11:35:40;4.03;;;2.90;;
42066;SDS011;27734;47.028;28.820;2023-07-29T11:38:14;4.37;;;2.60;;
42066;SDS011;27734;47.028;28.820;2023-07-29T11:40:54;3.40;;;2.73;;
42066;SDS011;27734;47.028;28.820;2023-07-29T11:43:34;5.13;;;2.70;;
42066;SDS011;27734;47.028;28.820;2023-07-29T11:46:05;4.57;;;2.57;;
42066;SDS011;27734;47.028;28.820;2023-07-29T11:48:37;4.83;;;2.90;;
42066;SDS011;27734;47.028;28.820;2023-07-29T11:51:08;5.43;;;2.67;;
42066;SDS011;27734;47.028;28.820;2023-07-29T11:53:39;2.90;;;2.60;;
42066;SDS011;27734;47.028;28.820;2023-07-29T11:56:11;4.43;;;2.73;;
42066;SDS011;27734;47.028;28.820;2023-07-29T11:58:44;5.70;;;2.90;;
42066;SDS011;27734;47.028;28.820;2023-07-29T12:01:15;4.15;;;2.90;;
42066;SDS011;27734;47.028;28.820;2023-07-29T12:03:46;4.40;;;2.90;;
42066;SDS011;27734;47.028;28.820;2023-07-29T12:06:18;4.63;;;2.60;;
42066;SDS011;27734;47.028;28.820;2023-07-29T12:08:50;3.43;;;2.43;;
42066;SDS011;27734;47.028;28.820;2023-07-29T12:11:21;5.80;;;2.83;;
42066;SDS011;27734;47.028;28.820;2023-07-29T12:13:54;4.33;;;2.83;;
42066;SDS011;27734;47.028;28.820;2023-07-29T12:16:25;3.43;;;2.73;;
42066;SDS011;27734;47.028;28.820;2023-07-29T12:19:02;3.97;;;2.97;;
42066;SDS011;27734;47.028;28.820;2023-07-29T12:21:35;4.83;;;2.85;;
42066;SDS011;27734;47.028;28.820;2023-07-29T12:24:06;3.37;;;2.77;;
42066;SDS011;27734;47.028;28.820;2023-07-29T12:26:38;2.93;;;2.60;;
42066;SDS011;27734;47.028;28.820;2023-07-29T12:29:12;2.93;;;2.37;;
42066;SDS011;27734;47.028;28.820;2023-07-29T12:31:44;3.20;;;2.60;;
42066;SDS011;27734;47.028;28.820;2023-07-29T12:34:19;6.23;;;3.00;;
42066;SDS011;27734;47.028;28.820;2023-07-29T12:36:51;7.63;;;3.10;;
42066;SDS011;27734;47.028;28.820;2023-07-29T12:39:24;3.52;;;2.90;;
42066;SDS011;27734;47.028;28.820;2023-07-29T12:41:57;4.20;;;2.85;;
42066;SDS011;27734;47.028;28.820;2023-07-29T12:44:29;4.58;;;2.77;;
42066;SDS011;27734;47.028;28.820;2023-07-29T12:47:02;4.17;;;2.85;;
42066;SDS011;27734;47.028;28.820;2023-07-29T12:49:36;3.10;;;2.80;;
42066;SDS011;27734;47.028;28.820;2023-07-29T12:52:08;4.53;;;3.17;;
42066;SDS011;27734;47.028;28.820;2023-07-29T12:54:39;4.80;;;3.10;;
42066;SDS011;27734;47.028;28.820;2023-07-29T12:57:12;4.55;;;2.95;;
42066;SDS011;27734;47.028;28.820;2023-07-29T12:59:43;4.63;;;3.30;;
42066;SDS011;27734;47.028;28.820;2023-07-29T13:02:14;4.47;;;3.10;;
42066;SDS011;27734;47.028;28.820;2023-07-29T13:04:46;3.50;;;2.67;;
42066;SDS011;27734;47.028;28.820;2023-07-29T13:07:17;4.00;;;3.03;;
42066;SDS011;27734;47.028;28.820;2023-07-29T13:09:48;4.20;;;2.60;;
42066;SDS011;27734;47.028;28.820;2023-07-29T13:12:19;3.83;;;3.00;;
42066;SDS011;27734;47.028;28.820;2023-07-29T13:14:51;3.97;;;2.90;;
42066;SDS011;27734;47.028;28.820;2023-07-29T13:17:22;6.97;;;3.17;;
42066;SDS011;27734;47.028;28.820;2023-07-29T13:19:53;4.30;;;2.90;;
42066;SDS011;27734;47.028;28.820;2023-07-29T13:22:25;2.90;;;2.60;;
42066;SDS011;27734;47.028;28.820;2023-07-29T13:24:56;4.80;;;3.30;;
42066;SDS011;27734;47.028;28.820;2023-07-29T13:27:27;4.13;;;3.00;;
42066;SDS011;27734;47.028;28.820;2023-07-29T13:29:58;3.03;;;2.73;;
42066;SDS011;27734;47.028;28.820;2023-07-29T13:32:30;3.43;;;2.70;;
42066;SDS011;27734;47.028;28.820;2023-07-29T13:35:01;4.30;;;3.00;;
42066;SDS011;27734;47.028;28.820;2023-07-29T13:37:32;4.67;;;3.30;;
42066;SDS011;27734;47.028;28.820;2023-07-29T13:40:04;4.63;;;3.00;;
42066;SDS011;27734;47.028;28.820;2023-07-29T13:45:07;3.90;;;2.80;;
42066;SDS011;27734;47.028;28.820;2023-07-29T13:47:39;4.42;;;3.17;;
42066;SDS011;27734;47.028;28.820;2023-07-29T13:50:10;4.70;;;3.50;;
42066;SDS011;27734;47.028;28.820;2023-07-29T13:52:42;6.23;;;4.10;;
42066;SDS011;27734;47.028;28.820;2023-07-29T13:55:13;7.05;;;3.40;;
42066;SDS011;27734;47.028;28.820;2023-07-29T13:57:44;8.20;;;3.20;;
42066;SDS011;27734;47.028;28.820;2023-07-29T14:00:16;3.63;;;3.30;;
42066;SDS011;27734;47.028;28.820;2023-07-29T14:02:47;7.03;;;3.20;;
42066;SDS011;27734;47.028;28.820;2023-07-29T14:05:18;5.43;;;3.60;;
42066;SDS011;27734;47.028;28.820;2023-07-29T14:07:50;7.40;;;3.40;;
42066;SDS011;27734;47.028;28.820;2023-07-29T14:10:21;3.30;;;3.00;;
42066;SDS011;27734;47.028;28.820;2023-07-29T14:12:53;4.33;;;3.20;;
42066;SDS011;27734;47.028;28.820;2023-07-29T14:15:24;6.50;;;3.10;;
42066;SDS011;27734;47.028;28.820;2023-07-29T14:17:56;6.87;;;3.37;;
42066;SDS011;27734;47.028;28.820;2023-07-29T14:20:27;4.17;;;3.13;;
42066;SDS011;27734;47.028;28.820;2023-07-29T14:22:59;5.73;;;3.10;;
42066;SDS011;27734;47.028;28.820;2023-07-29T14:25:30;5.67;;;3.20;;
42066;SDS011;27734;47.028;28.820;2023-07-29T14:28:01;5.90;;;3.10;;
42066;SDS011;27734;47.028;28.820;2023-07-29T14:30:33;6.37;;;3.10;;
42066;SDS011;27734;47.028;28.820;2023-07-29T14:33:05;4.72;;;3.60;;
42066;SDS011;27734;47.028;28.820;2023-07-29T14:35:37;4.57;;;3.30;;
42066;SDS011;27734;47.028;28.820;2023-07-29T14:38:08;5.93;;;3.63;;
42066;SDS011;27734;47.028;28.820;2023-07-29T14:40:39;5.13;;;3.37;;
42066;SDS011;27734;47.028;28.820;2023-07-29T14:43:11;4.17;;;3.20;;
42066;SDS011;27734;47.028;28.820;2023-07-29T14:45:42;3.53;;;3.00;;
42066;SDS011;27734;47.028;28.820;2023-07-29T14:48:13;5.27;;;3.10;;
42066;SDS011;27734;47.028;28.820;2023-07-29T14:50:44;6.33;;;3.30;;
42066;SDS011;27734;47.028;28.820;2023-07-29T14:53:16;3.87;;;2.97;;
42066;SDS011;27734;47.028;28.820;2023-07-29T14:55:47;6.57;;;3.73;;
42066;SDS011;27734;47.028;28.820;2023-07-29T14:58:18;5.67;;;3.30;;
42066;SDS011;27734;47.028;28.820;2023-07-29T15:00:50;4.30;;;3.37;;
42066;SDS011;27734;47.028;28.820;2023-07-29T15:03:21;4.20;;;3.10;;
42066;SDS011;27734;47.028;28.820;2023-07-29T15:05:52;4.75;;;3.30;;
42066;SDS011;27734;47.028;28.820;2023-07-29T15:08:28;6.60;;;3.50;;